עמוד ראשי
METAR-TAF:

METAR-TAF

שדות תעופה :

Panama Pacifico, פנמה

קו רוחב: 08-55N, קו אורך: 079-36W, גובה: 16מטר

תצפית מזג אוויר נוכחית

הדו"ח נערך לפני 2 שעות ו 46דקות, בשעה 03:00 UTC
רוח 5קשר מכיוון צפון
טמפרטורת
לחץ 1008 hPa
ראות 10 קילומטר או יותר
מעט עננים בגובה 1800רגל , קומולונימבוס.

METAR: MPPA 200300Z 01005KT 9999 FEW018CB ///// Q1008

זמן: 00:46 (05:46 UTC)

תחזית

הדו"ח נערך לפני 6 שעות ו 16דקות, בשעה 23:30 UTC
תחזית בתוקף מ 20 ב 00 UTC עד 21 ב 06 UTC
רוח 6קשר מכיוון צפון/צפון-מערב
ראות 10 קילומטר או יותר
עננים פזורים בגובה 1800רגל
זמנית מ -
20 ב 00 UTC עד 20 ב 02 UTC
ראות: 5000מטר
עננים פזורים בגובה 1600רגל , קומולונימבוס.
עננים פזורים בגובה 9000רגל
סופת רעמים, גשם
זמנית מ -
20 ב 04 UTC עד 20 ב 08 UTC
רוח 2קשר עם כיוונים משתנים

TAF: MPPA 192330Z 2000/2106 34006KT 9999 SCT018 TEMPO 2000/2002 5000 TSRA SCT016CB SCT090 TEMPO 2004/2008 VRB02KT

תצפיות ותחזיות מזג אוויר לגבי יותר מ- 4,000 שדות תעופה ברחבי העולם. דוחות METAR ו- TAF.

התחנות הזמינות מסומנות בנקודות צהובות ואדומות על גבי המפה.

העבר את העכבר לנקודה הצבעונית על מנת לראות את שם התחנה.

לאחר מכן, לחץ כדי לראות את תוכן ואת תחזיות מזג האוויר.

כדי לשנות את המפה: לחץ על הכפתורים הירוקים עם הפלוס השחור כדי להתקרב; על הכפתור הירוק עם המקף כדי להתרחק; או בחיצים הירוקים למפות סמוכות.


METAR-TAF: